Aérodrome :
LOGIN :

S'inscrire | Disclaimer

   EN    FR    IT 

 










Légende :    VFR   VFR Marginal   IFR   IFR Intensif   IFR Très Intensif
Visi : 
Plafond : 
>= 8 km
>= 3000ft
5 à 8 km
1000 à 3000 ft
1500m à 5 km
500 à 1000 ft
800 à 1500m
200 à 500 ft
< 800m
< 200 ft
Symboles :   Orages  Brouillard  Fortes neiges  Fortes précipitations  Vent > 20 kt
SIGMETs :   Divers  Orages  Givrage  Turbulence  Onde Orograph.  Cendres Volcan.






- Altitude de l'aérodrome : 584 ft


LFPV - Villacoublay Vélizy

DERNIER METAR :
  • 282030Z AUTO 24005KT 9999 FEW040 BKN054 BKN066 07/06 Q1013 NOSIG

METARs EXPIRÉS :
  • 282000Z AUTO 24005KT 9999 NSC 07/05 Q1013 NOSIG
  • 281930Z AUTO 23004KT 9999 NSC 07/05 Q1013 NOSIG
  • 281900Z AUTO 25006KT 9999 -RA SCT045 SCT054 BKN068 07/06 Q1013 NOSIG
  • 281830Z AUTO 23006KT 9999 NSC 07/05 Q1012 NOSIG
  • 281800Z AUTO 23007KT 9999 FEW027/// BKN120/// BKN210/// ///TCU 07/06 Q1012 BECMG FEW016 BKN023 BKN028

TAF TAF LFPV
Valide du 28 à 21h jusqu'au 29 à 21h UTC


282000Z 2821/2921 VRB02KT 9999 NSC TX08/2915Z TN06/2905Z
PROB40 2903/2910 3000 BR OVC005
PROB30 2906/2909 0250 FG VV///
BECMG 2910/2914 BKN018



MET'MAP, la Météo Aéronautique d'un coup d'oeil ! - Copyright ORBIFLY Décembre 2007 - Disclaimer

ORBIFLY MET'MAP TEAM :

Programmation & Développement : Alexandra Zaïnal
Sur une idée originale de : Baudouin d'Aumeries
Soutien technique & logistique : Manuel Goepfert
Assistance : Marc-Olivier Méhu




SOURCES & CREDITS :

   NOAA